Řízení letového provozu České republiky
Letiste: LKMT Aktualizace: 21.10.2018 00:31:06  UTC
 METAR LKMT 21.10. 00:30 ...
METAR LKMT 210030Z 01006KT 340V040 9999 BKN033 OVC048 07/01 Q1026 NOSIG RMK REG QNH 1023=
 TAF LKMT 20.10. 23:00 ...
TAF LKMT 202300Z 2100/2206 03008KT 9999 BKN017      BECMG 2100/2102 4000 BR BKN012      BECMG 2102/2104 2500 -RA BR BKN006      TEMPO 2107/2116 03010G25KT 5000 BR BKN010=